Time;durP1;ratioP1;P1;durP2;ratioP2;P2;SDS_P1;SDS_P2;PMS_P1;PMS_P2;Temp;Humidity;BMP_temperature;BMP_pressure;BME280_temperature;BME280_humidity;BME280_pressure;Samples;Min_cycle;Max_cycle;Signal;HPM_P1;HPM_P2
2021/08/02 00:01:41;;;;;;;;;;;;;;;21.33;57.74;100493.56;5002107;28;97224;-81
2021/08/02 00:04:09;;;;;;;;;;;;;;;21.36;57.21;100487.09;4997993;28;97615;-83
2021/08/02 00:06:39;;;;;;;;;;;;;;;21.35;57.74;100488.06;4982142;28;100700;-81
2021/08/02 00:09:06;;;;;;;;;;;;;;;21.20;58.11;100489.38;4994074;28;97983;-82
2021/08/02 00:11:33;;;;;;;;;;;;;;;21.29;57.23;100492.13;4997626;28;96800;-82
2021/08/02 00:14:00;;;;;;;;;;;;;;;21.06;57.65;100487.81;4997535;28;96807;-82
2021/08/02 00:16:29;;;;;;;;;;;;;;;21.12;57.53;100490.00;4988792;28;99121;-82
2021/08/02 00:18:55;;;;;;;;;;;;;;;21.03;57.80;100488.91;4992082;28;98074;-82
2021/08/02 00:21:22;;;;;;;;;;;;;;;21.30;57.16;100493.00;4988764;28;96784;-83
2021/08/02 00:23:48;;;;;;;;;;;;;;;21.29;57.25;100484.06;4986229;28;97309;-83
2021/08/02 00:26:15;;;;;;;;;;;;;;;21.45;56.68;100487.19;4997240;28;100952;-82
2021/08/02 00:28:42;;;;;;;;;;;;;;;21.35;57.05;100488.06;4996479;28;101331;-82
2021/08/02 00:31:08;;;;;;;;;;;;;;;21.35;57.02;100490.75;4994069;28;96936;-82
2021/08/02 00:33:36;;;;;;;;;;;;;;;21.48;56.29;100494.13;4996183;28;96854;-84
2021/08/02 00:36:05;;;;;;;;;;;;;;;21.39;56.09;100493.09;4996393;28;98093;-83
2021/08/02 00:38:35;;;;;;;;;;;;;;;21.53;55.93;100497.25;4994371;28;99346;-83
2021/08/02 00:41:10;;;;;;;;;;;;;;;21.41;56.28;100496.47;4995525;28;97186;-83
2021/08/02 00:43:55;;;;;;;;;;;;;;;21.43;56.24;100499.91;4995645;28;96818;-83
2021/08/02 00:46:23;;;;;;;;;;;;;;;21.41;55.87;100495.63;4993885;28;100136;-83
2021/08/02 00:48:55;;;;;;;;;;;;;;;21.19;56.27;100495.72;4988281;28;99578;-83
2021/08/02 00:51:22;;;;;;;;;;;;;;;21.40;55.97;100497.44;4998181;28;98667;-83
2021/08/02 00:53:49;;;;;;;;;;;;;;;21.34;56.07;100494.44;4998964;28;97093;-82
2021/08/02 00:56:16;;;;;;;;;;;;;;;20.85;56.78;100493.13;4998090;28;99054;-82
2021/08/02 00:58:45;;;;;;;;;;;;;;;20.32;58.16;100492.06;4999163;28;98961;-81
2021/08/02 01:01:11;;;;;;;;;;;;;;;20.40;59.36;100496.84;4997004;28;96891;-82
2021/08/02 01:03:39;;;;;;;;;;;;;;;20.96;57.72;100495.75;5001618;28;97519;-81
2021/08/02 01:06:07;;;;;;;;;;;;;;;21.14;56.72;100495.22;4998059;28;100846;-82
2021/08/02 01:08:37;;;;;;;;;;;;;;;20.89;57.62;100496.38;5001363;28;99320;-82
2021/08/02 01:11:04;;;;;;;;;;;;;;;20.36;59.05;100496.22;4990854;28;96825;-82
2021/08/02 01:13:33;;;;;;;;;;;;;;;20.06;59.98;100499.50;5001165;28;97257;-82
2021/08/02 01:16:01;;;;;;;;;;;;;;;20.91;58.04;100503.34;4987329;28;100004;-82
2021/08/02 01:18:30;;;;;;;;;;;;;;;20.50;58.83;100505.88;4992599;28;100066;-82
2021/08/02 01:21:00;;;;;;;;;;;;;;;20.74;58.50;100511.94;4999515;28;97178;-82
2021/08/02 01:23:28;;;;;;;;;;;;;;;20.65;58.75;100508.16;4999152;28;97020;-82
2021/08/02 01:26:09;;;;;;;;;;;;;;;21.06;57.09;100518.22;4997451;28;99433;-82
2021/08/02 01:28:54;;;;;;;;;;;;;;;20.43;58.85;100515.38;5000720;28;98033;-82
2021/08/02 01:31:21;;;;;;;;;;;;;;;20.30;59.37;100524.38;5000109;28;96772;-82
2021/08/02 01:33:47;;;;;;;;;;;;;;;20.50;59.15;100520.13;5000363;28;96755;-83
2021/08/02 01:36:13;;;;;;;;;;;;;;;20.73;58.44;100520.97;5000719;28;98334;-83
2021/08/02 01:38:41;;;;;;;;;;;;;;;20.94;57.48;100524.56;5001845;28;99818;-82
2021/08/02 01:41:08;;;;;;;;;;;;;;;20.81;57.37;100523.00;4991358;28;96823;-83
2021/08/02 01:43:34;;;;;;;;;;;;;;;21.04;56.42;100528.22;4991197;28;96975;-82
2021/08/02 01:46:04;;;;;;;;;;;;;;;21.21;56.22;100528.69;4998431;28;98848;-82
2021/08/02 01:48:35;;;;;;;;;;;;;;;21.32;55.12;100526.84;4996900;28;100424;-83
2021/08/02 01:51:06;;;;;;;;;;;;;;;21.39;55.53;100535.22;5004513;28;96778;-82
2021/08/02 01:53:34;;;;;;;;;;;;;;;21.22;54.94;100533.09;5008446;28;96718;-83
2021/08/02 01:56:05;;;;;;;;;;;;;;;21.42;54.51;100534.97;5004694;28;101484;-81
2021/08/02 01:58:34;;;;;;;;;;;;;;;21.36;55.26;100535.47;4995782;28;98190;-82
2021/08/02 02:01:00;;;;;;;;;;;;;;;21.41;54.56;100533.25;4997751;28;96687;-82
2021/08/02 02:03:28;;;;;;;;;;;;;;;21.34;54.29;100535.59;5007846;28;96921;-83
2021/08/02 02:05:59;;;;;;;;;;;;;;;21.46;53.95;100541.81;5007877;28;96925;-82
2021/08/02 02:08:30;;;;;;;;;;;;;;;21.41;53.67;100539.47;5004866;28;101424;-82
2021/08/02 02:10:58;;;;;;;;;;;;;;;21.03;54.21;100545.31;5003911;28;96950;-82
2021/08/02 02:13:29;;;;;;;;;;;;;;;21.36;53.95;100555.16;5003726;28;97024;-81
2021/08/02 02:15:58;;;;;;;;;;;;;;;21.57;53.79;100540.88;4997071;28;101755;-82
2021/08/02 02:18:25;;;;;;;;;;;;;;;21.26;52.92;100551.53;4997564;28;98658;-81
2021/08/02 02:20:52;;;;;;;;;;;;;;;21.38;53.72;100544.28;4999950;28;97319;-81
2021/08/02 02:23:18;;;;;;;;;;;;;;;21.42;53.19;100549.25;4999767;28;96805;-80
2021/08/02 02:25:45;;;;;;;;;;;;;;;21.56;52.71;100542.72;4997642;28;98225;-82
2021/08/02 02:28:12;;;;;;;;;;;;;;;21.36;53.29;100546.22;5000320;28;97723;-82
2021/08/02 02:30:41;;;;;;;;;;;;;;;21.22;53.68;100554.56;4998528;28;97028;-82
2021/08/02 02:33:08;;;;;;;;;;;;;;;20.96;54.47;100546.78;5000360;28;97547;-82
2021/08/02 02:35:40;;;;;;;;;;;;;;;21.22;54.36;100562.63;4999559;28;98829;-82
2021/08/02 02:38:06;;;;;;;;;;;;;;;21.05;54.73;100553.25;5000099;28;99361;-81
2021/08/02 02:40:33;;;;;;;;;;;;;;;21.29;54.01;100563.84;4998398;28;96999;-82
2021/08/02 02:42:59;;;;;;;;;;;;;;;21.01;54.67;100558.00;4992240;28;96856;-81
2021/08/02 02:45:26;;;;;;;;;;;;;;;21.36;53.88;100567.72;4975788;28;98515;-81
2021/08/02 02:47:54;;;;;;;;;;;;;;;20.95;54.82;100566.56;4998024;28;101440;-82
2021/08/02 02:50:21;;;;;;;;;;;;;;;21.13;54.95;100568.75;4997809;28;96817;-82
2021/08/02 02:52:49;;;;;;;;;;;;;;;21.22;54.67;100570.69;5004148;28;96812;-81
2021/08/02 02:55:16;;;;;;;;;;;;;;;21.03;55.19;100572.19;4999466;28;100864;-82
2021/08/02 02:57:42;;;;;;;;;;;;;;;21.17;54.83;100579.16;4999524;28;99142;-81
2021/08/02 03:00:10;;;;;;;;;;;;;;;21.12;54.38;100573.28;4998210;28;97297;-82
2021/08/02 03:02:37;;;;;;;;;;;;;;;21.22;54.84;100581.44;4999735;28;96857;-82
2021/08/02 03:05:07;;;;;;;;;;;;;;;21.18;54.75;100577.31;4999414;28;96969;-83
2021/08/02 03:07:34;;;;;;;;;;;;;;;20.98;55.46;100578.91;4989002;28;99143;-83
2021/08/02 03:10:01;;;;;;;;;;;;;;;20.83;56.49;100581.00;4991850;28;96686;-82
2021/08/02 03:12:30;;;;;;;;;;;;;;;20.14;58.40;100582.06;5004363;28;96877;-82
2021/08/02 03:14:57;;;;;;;;;;;;;;;20.56;57.16;100589.44;5011854;28;99136;-82
2021/08/02 03:17:23;;;;;;;;;;;;;;;20.71;56.57;100590.03;4999909;28;98999;-82
2021/08/02 03:19:50;;;;;;;;;;;;;;;20.87;56.87;100603.94;4995409;28;96839;-82
2021/08/02 03:22:23;;;;;;;;;;;;;;;20.97;56.50;100599.53;4999096;28;97095;-81
2021/08/02 03:24:52;;;;;;;;;;;;;;;20.63;57.19;100598.72;4994344;28;96893;-82
2021/08/02 03:27:22;;;;;;;;;;;;;;;20.85;56.78;100599.69;4990443;28;97978;-82
2021/08/02 03:29:50;;;;;;;;;;;;;;;20.47;57.87;100594.69;4995878;28;96790;-82
2021/08/02 03:32:18;;;;;;;;;;;;;;;20.07;58.41;100608.50;5003402;28;96898;-81
2021/08/02 03:34:47;;;;;;;;;;;;;;;20.69;56.93;100600.03;5002088;28;100610;-82
2021/08/02 03:37:16;;;;;;;;;;;;;;;20.64;56.59;100607.63;4990473;28;97716;-82
2021/08/02 03:39:45;;;;;;;;;;;;;;;20.91;56.17;100600.03;4995405;28;97017;-82
2021/08/02 03:42:12;;;;;;;;;;;;;;;21.14;56.16;100606.22;5003944;28;96889;-82
2021/08/02 03:44:39;;;;;;;;;;;;;;;21.00;55.32;100609.19;4999687;28;98441;-81
2021/08/02 03:47:06;;;;;;;;;;;;;;;20.11;58.69;100609.97;4993690;28;98174;-82
2021/08/02 03:49:33;;;;;;;;;;;;;;;20.63;56.76;100616.66;4996456;28;97224;-82
2021/08/02 03:52:00;;;;;;;;;;;;;;;20.56;56.61;100623.47;5000114;28;96908;-82
2021/08/02 03:54:27;;;;;;;;;;;;;;;20.30;56.27;100617.44;4998854;28;98204;-82
2021/08/02 03:56:56;;;;;;;;;;;;;;;20.56;56.12;100621.66;4998357;28;98894;-82
2021/08/02 03:59:23;;;;;;;;;;;;;;;20.81;55.83;100625.06;4998118;28;96718;-82
2021/08/02 04:01:50;;;;;;;;;;;;;;;21.05;55.19;100639.22;4985628;28;96931;-82
2021/08/02 04:04:17;;;;;;;;;;;;;;;20.89;54.47;100633.38;4984195;28;99535;-82
2021/08/02 04:06:43;;;;;;;;;;;;;;;20.73;54.69;100647.19;4978774;28;98850;-82
2021/08/02 04:09:11;;;;;;;;;;;;;;;20.95;54.09;100640.94;4999708;28;96895;-82
2021/08/02 04:11:38;;;;;;;;;;;;;;;21.13;53.69;100649.34;5017153;28;96808;-82
2021/08/02 04:14:06;;;;;;;;;;;;;;;20.69;54.33;100648.38;5015422;28;98118;-82
2021/08/02 04:16:33;;;;;;;;;;;;;;;21.15;54.01;100644.69;5016879;28;97771;-82
2021/08/02 04:19:00;;;;;;;;;;;;;;;21.32;54.01;100653.16;4999512;28;98473;-83
2021/08/02 04:21:26;;;;;;;;;;;;;;;21.10;54.83;100655.81;4997894;28;96859;-83
2021/08/02 04:23:54;;;;;;;;;;;;;;;21.24;53.17;100654.75;5000585;28;101706;-82
2021/08/02 04:26:20;;;;;;;;;;;;;;;21.11;53.65;100659.38;4999318;28;99440;-82
2021/08/02 04:28:47;;;;;;;;;;;;;;;20.96;53.28;100659.63;4999199;28;96849;-83
2021/08/02 04:31:15;;;;;;;;;;;;;;;20.85;54.30;100659.63;5002493;28;96811;-83
2021/08/02 04:33:41;;;;;;;;;;;;;;;21.24;53.15;100660.97;5001914;28;96904;-81
2021/08/02 04:36:08;;;;;;;;;;;;;;;21.21;53.10;100663.88;4998500;28;101572;-81
2021/08/02 04:38:34;;;;;;;;;;;;;;;21.12;53.05;100666.44;4983754;28;96877;-81
2021/08/02 04:41:00;;;;;;;;;;;;;;;21.11;52.94;100670.09;4994686;28;97123;-81
2021/08/02 04:43:27;;;;;;;;;;;;;;;21.25;52.74;100677.94;5001406;28;100286;-85
2021/08/02 04:45:54;;;;;;;;;;;;;;;21.36;52.67;100670.72;4997736;28;98174;-83
2021/08/02 04:48:22;;;;;;;;;;;;;;;21.02;53.65;100677.91;5001168;28;98646;-84
2021/08/02 04:50:49;;;;;;;;;;;;;;;21.08;52.92;100679.25;4999540;28;96853;-84
2021/08/02 04:53:15;;;;;;;;;;;;;;;21.19;53.28;100683.81;5017058;28;99292;-84
2021/08/02 04:55:42;;;;;;;;;;;;;;;21.04;53.28;100677.81;5002285;28;97877;-82
2021/08/02 04:58:08;;;;;;;;;;;;;;;21.01;53.37;100676.22;5007125;28;96960;-82
2021/08/02 05:00:34;;;;;;;;;;;;;;;21.13;53.15;100679.78;4996507;28;96899;-83
2021/08/02 05:03:01;;;;;;;;;;;;;;;20.80;53.38;100694.06;5001168;28;99433;-83
2021/08/02 05:05:30;;;;;;;;;;;;;;;21.20;53.29;100685.53;5008101;28;100153;-83
2021/08/02 05:07:56;;;;;;;;;;;;;;;21.45;52.74;100682.56;5002058;28;98593;-84
2021/08/02 05:10:22;;;;;;;;;;;;;;;21.65;52.01;100683.63;5000403;28;98132;-83
2021/08/02 05:12:50;;;;;;;;;;;;;;;21.79;51.64;100691.41;4999899;28;99253;-83
2021/08/02 05:15:18;;;;;;;;;;;;;;;21.98;51.25;100693.44;5001936;28;99310;-83
2021/08/02 05:17:45;;;;;;;;;;;;;;;21.85;51.16;100694.44;4995443;28;96705;-80
2021/08/02 05:20:11;;;;;;;;;;;;;;;21.98;50.71;100688.06;5005104;28;97072;-82
2021/08/02 05:22:39;;;;;;;;;;;;;;;21.66;51.73;100688.84;5001818;28;99025;-83
2021/08/02 05:25:06;;;;;;;;;;;;;;;21.78;51.01;100692.38;4998516;28;101352;-82
2021/08/02 05:27:33;;;;;;;;;;;;;;;22.07;50.83;100693.50;4998813;28;98213;-83
2021/08/02 05:29:59;;;;;;;;;;;;;;;22.27;50.76;100695.38;4995153;28;96884;-83
2021/08/02 05:32:26;;;;;;;;;;;;;;;22.18;50.83;100700.69;4995505;28;98149;-84
2021/08/02 05:34:52;;;;;;;;;;;;;;;21.75;51.79;100698.84;4993336;28;99570;-80
2021/08/02 05:37:19;;;;;;;;;;;;;;;20.99;53.08;100699.66;4991517;28;96803;-83
2021/08/02 05:39:47;;;;;;;;;;;;;;;21.90;51.24;100702.09;4997901;28;96797;-83
2021/08/02 05:42:14;;;;;;;;;;;;;;;20.77;53.66;100705.03;4999940;28;99789;-82
2021/08/02 05:44:40;;;;;;;;;;;;;;;21.77;52.00;100704.97;4998027;28;98083;-83
2021/08/02 05:47:11;;;;;;;;;;;;;;;21.36;52.40;100704.81;4992805;28;96843;-85
2021/08/02 05:49:40;;;;;;;;;;;;;;;21.94;51.94;100703.53;4989449;28;96919;-85
2021/08/02 05:52:07;;;;;;;;;;;;;;;22.50;50.28;100706.88;4998427;28;98599;-82
2021/08/02 05:54:41;;;;;;;;;;;;;;;21.87;52.09;100713.97;5001637;28;99210;-83
2021/08/02 05:57:09;;;;;;;;;;;;;;;22.28;50.72;100709.69;4997123;28;97757;-84
2021/08/02 05:59:36;;;;;;;;;;;;;;;21.63;51.98;100713.31;4994668;28;96911;-84
2021/08/02 06:02:03;;;;;;;;;;;;;;;22.15;51.78;100712.56;4992996;28;98318;-81
2021/08/02 06:04:29;;;;;;;;;;;;;;;22.10;51.19;100708.53;4984063;28;98807;-81
2021/08/02 06:06:56;;;;;;;;;;;;;;;22.45;49.93;100714.47;4989371;28;97344;-84
2021/08/02 06:09:24;;;;;;;;;;;;;;;22.51;50.14;100713.94;4998064;28;96761;-85
2021/08/02 06:11:51;;;;;;;;;;;;;;;22.60;49.34;100715.84;4987237;28;98637;-83
2021/08/02 06:14:19;;;;;;;;;;;;;;;22.72;49.05;100711.25;4994114;28;101394;-84
2021/08/02 06:16:50;;;;;;;;;;;;;;;22.45;49.39;100724.41;4996495;28;97850;-83
2021/08/02 06:19:16;;;;;;;;;;;;;;;23.00;48.16;100720.50;4996232;28;97572;-83
2021/08/02 06:21:43;;;;;;;;;;;;;;;22.44;49.17;100728.09;4984760;28;97996;-79
2021/08/02 06:24:09;;;;;;;;;;;;;;;21.98;49.36;100723.03;4991808;28;98844;-80
2021/08/02 06:26:37;;;;;;;;;;;;;;;23.24;46.89;100715.63;4993621;28;96854;-85
2021/08/02 06:29:04;;;;;;;;;;;;;;;23.22;47.01;100714.09;4992136;28;96857;-83
2021/08/02 06:31:32;;;;;;;;;;;;;;;22.90;47.85;100719.63;4996557;28;98740;-82
2021/08/02 06:34:00;;;;;;;;;;;;;;;22.71;48.47;100716.78;5003452;28;100086;-81
2021/08/02 06:36:27;;;;;;;;;;;;;;;23.36;46.89;100719.09;4987439;28;97059;-83
2021/08/02 06:38:54;;;;;;;;;;;;;;;23.41;46.18;100719.53;5000196;28;96776;-84
2021/08/02 06:41:20;;;;;;;;;;;;;;;23.28;46.51;100719.78;4995643;28;101614;-81
2021/08/02 06:43:47;;;;;;;;;;;;;;;22.73;46.73;100722.91;4997562;28;101697;-80
2021/08/02 06:46:13;;;;;;;;;;;;;;;22.92;46.95;100728.41;4991367;28;96940;-84
2021/08/02 06:48:41;;;;;;;;;;;;;;;22.77;46.32;100727.06;5008681;28;98922;-85
2021/08/02 06:51:10;;;;;;;;;;;;;;;22.51;46.21;100731.97;5002618;28;97239;-82
2021/08/02 06:53:38;;;;;;;;;;;;;;;22.91;45.82;100727.53;4997067;28;99532;-82
2021/08/02 06:56:06;;;;;;;;;;;;;;;23.14;43.95;100730.94;4987410;28;96777;-83
2021/08/02 06:58:32;;;;;;;;;;;;;;;22.83;44.26;100727.38;4995501;28;98477;-84
2021/08/02 07:00:59;;;;;;;;;;;;;;;23.22;42.91;100728.41;4994600;28;100202;-84
2021/08/02 07:03:25;;;;;;;;;;;;;;;22.95;43.42;100733.53;4998355;28;100485;-79
2021/08/02 07:05:53;;;;;;;;;;;;;;;23.53;41.96;100729.25;4994000;28;97344;-82
2021/08/02 07:08:20;;;;;;;;;;;;;;;23.30;42.62;100728.56;4992324;28;97079;-81
2021/08/02 07:10:46;;;;;;;;;;;;;;;23.31;42.53;100730.28;4994373;28;102119;-81
2021/08/02 07:13:13;;;;;;;;;;;;;;;24.09;40.94;100734.06;4999201;28;97263;-81
2021/08/02 07:15:39;;;;;;;;;;;;;;;23.16;41.68;100733.50;4995719;28;97620;-81
2021/08/02 07:18:06;;;;;;;;;;;;;;;24.38;39.47;100743.00;4989020;28;96974;-79
2021/08/02 07:20:32;;;;;;;;;;;;;;;24.82;38.27;100736.13;4996855;28;98088;-81
2021/08/02 07:23:00;;;;;;;;;;;;;;;24.10;40.48;100741.97;5004835;28;96902;-81
2021/08/02 07:25:26;;;;;;;;;;;;;;;24.87;39.32;100744.66;4996490;28;96979;-82
2021/08/02 07:27:53;;;;;;;;;;;;;;;22.96;42.61;100732.56;4990682;28;97058;-82
2021/08/02 07:33:08;;;;;;;;;;;;;;;23.54;42.33;100746.28;5004973;28;96738;-84
2021/08/02 07:35:35;;;;;;;;;;;;;;;23.22;42.64;100747.28;5010128;28;96680;-85
2021/08/02 07:40:49;;;;;;;;;;;;;;;23.82;41.17;100743.69;5000834;28;98739;-81
2021/08/02 07:43:16;;;;;;;;;;;;;;;24.02;40.18;100749.94;4996408;28;99347;-80
2021/08/02 07:48:44;;;;;;;;;;;;;;;21.91;44.52;100749.56;4901377;28;97055;-81
2021/08/02 07:51:11;;;;;;;;;;;;;;;22.43;42.98;100754.16;4995919;28;100973;-83
2021/08/02 07:53:39;;;;;;;;;;;;;;;23.03;41.92;100737.28;4995257;28;98820;-84
2021/08/02 07:56:06;;;;;;;;;;;;;;;22.53;42.38;100749.69;4990742;28;96735;-83
2021/08/02 07:58:41;;;;;;;;;;;;;;;21.55;43.96;100750.72;5000155;28;97362;-83
2021/08/02 08:01:08;;;;;;;;;;;;;;;21.58;44.54;100755.00;4999788;28;99581;-83
2021/08/02 08:03:35;;;;;;;;;;;;;;;22.89;41.71;100751.09;4993596;28;100873;-85
2021/08/02 08:06:15;;;;;;;;;;;;;;;22.97;40.91;100755.81;5002128;28;96883;-82
2021/08/02 08:08:44;;;;;;;;;;;;;;;23.87;38.54;100751.34;5002996;28;96775;-83
2021/08/02 08:11:18;;;;;;;;;;;;;;;24.72;37.13;100756.91;5004336;28;97994;-83
2021/08/02 08:13:46;;;;;;;;;;;;;;;25.01;36.63;100744.19;5007542;28;99450;-83
2021/08/02 08:16:13;;;;;;;;;;;;;;;25.10;35.97;100739.78;4998311;28;96803;-85
2021/08/02 08:18:41;;;;;;;;;;;;;;;25.27;35.81;100751.69;4999698;28;97301;-84
2021/08/02 08:24:06;;;;;;;;;;;;;;;23.95;37.59;100751.50;4987620;28;98539;-83
2021/08/02 08:26:34;;;;;;;;;;;;;;;23.93;38.02;100753.47;4997742;28;96869;-83
2021/08/02 08:29:16;;;;;;;;;;;;;;;23.70;38.42;100757.41;4995102;28;97035;-84
2021/08/02 08:31:43;;;;;;;;;;;;;;;22.80;39.77;100749.19;4998051;28;101061;-84
2021/08/02 08:34:10;;;;;;;;;;;;;;;23.54;38.13;100751.69;4997056;28;97720;-85
2021/08/02 08:36:37;;;;;;;;;;;;;;;23.14;37.37;100751.63;4989797;28;96662;-81
2021/08/02 08:39:05;;;;;;;;;;;;;;;24.62;35.43;100756.06;4994070;28;96883;-82
2021/08/02 08:41:31;;;;;;;;;;;;;;;24.99;34.82;100767.84;4988233;28;99262;-81
2021/08/02 08:43:58;;;;;;;;;;;;;;;25.38;33.78;100755.03;4991066;28;100493;-80
2021/08/02 08:46:25;;;;;;;;;;;;;;;25.79;34.22;100751.00;4991539;28;97089;-80
2021/08/02 08:48:51;;;;;;;;;;;;;;;25.80;33.79;100754.53;4992648;28;98345;-78
2021/08/02 08:51:19;;;;;;;;;;;;;;;26.14;33.37;100752.03;4996883;28;101206;-80
2021/08/02 08:53:46;;;;;;;;;;;;;;;25.71;34.30;100748.22;5001605;28;97701;-79
2021/08/02 08:56:15;;;;;;;;;;;;;;;24.84;35.19;100755.75;5002072;28;96583;-78
2021/08/02 08:58:43;;;;;;;;;;;;;;;24.75;35.90;100761.16;5009961;28;98915;-79
2021/08/02 09:01:10;;;;;;;;;;;;;;;24.61;36.02;100765.19;5001292;28;101377;-81
2021/08/02 09:03:36;;;;;;;;;;;;;;;24.87;35.45;100771.69;5001727;28;98503;-81
2021/08/02 09:06:03;;;;;;;;;;;;;;;24.41;36.27;100761.66;4995400;28;97222;-80
2021/08/02 09:08:29;;;;;;;;;;;;;;;23.67;37.79;100765.78;5002163;28;96727;-79
2021/08/02 09:10:56;;;;;;;;;;;;;;;23.41;38.27;100758.16;5008443;28;98065;-80
2021/08/02 09:13:30;;;;;;;;;;;;;;;23.51;37.82;100768.97;5004735;28;97708;-81
2021/08/02 09:15:57;;;;;;;;;;;;;;;24.05;36.85;100760.44;5002402;28;97057;-80
2021/08/02 09:18:25;;;;;;;;;;;;;;;24.76;35.42;100763.72;5003402;28;96743;-82
2021/08/02 09:21:01;;;;;;;;;;;;;;;24.96;34.68;100761.88;5001857;28;98175;-86
2021/08/02 09:23:27;;;;;;;;;;;;;;;25.13;34.37;100762.97;5014687;28;98773;-84
2021/08/02 09:25:59;;;;;;;;;;;;;;;25.34;33.52;100764.44;5014510;28;96707;-82
2021/08/02 09:28:25;;;;;;;;;;;;;;;25.26;34.38;100760.78;4995716;28;97232;-85
2021/08/02 09:30:59;;;;;;;;;;;;;;;25.32;33.59;100763.75;5014755;28;99498;-85
2021/08/02 09:33:26;;;;;;;;;;;;;;;25.41;33.55;100759.28;5013990;28;99088;-85
2021/08/02 09:35:53;;;;;;;;;;;;;;;25.85;33.15;100768.50;5007756;28;96908;-85
2021/08/02 09:38:24;;;;;;;;;;;;;;;24.47;34.79;100765.63;5013457;28;96960;-86
2021/08/02 09:40:51;;;;;;;;;;;;;;;24.57;35.19;100767.31;5011695;28;99612;-84
2021/08/02 09:43:20;;;;;;;;;;;;;;;25.21;34.77;100769.31;5012139;28;97820;-85
2021/08/02 09:45:47;;;;;;;;;;;;;;;25.29;34.37;100774.00;5013604;28;96814;-87
2021/08/02 09:48:18;;;;;;;;;;;;;;;24.83;35.51;100774.81;5011752;28;96653;-87
2021/08/02 09:50:45;;;;;;;;;;;;;;;24.84;34.56;100768.41;5003302;28;98575;-82
2021/08/02 09:53:13;;;;;;;;;;;;;;;25.52;33.80;100771.78;5008897;28;99368;-83
2021/08/02 09:55:40;;;;;;;;;;;;;;;25.37;33.77;100774.13;5005379;28;96673;-85
2021/08/02 09:58:07;;;;;;;;;;;;;;;24.96;34.27;100775.38;5005054;28;96857;-83
2021/08/02 10:00:38;;;;;;;;;;;;;;;25.08;33.86;100773.34;4999232;28;102526;-85
2021/08/02 10:03:04;;;;;;;;;;;;;;;25.87;33.61;100762.91;5002561;28;99336;-84
2021/08/02 10:05:32;;;;;;;;;;;;;;;26.17;32.72;100774.25;5004343;28;96868;-86
2021/08/02 10:07:59;;;;;;;;;;;;;;;25.31;33.66;100772.00;5012681;27;97042;-82
2021/08/02 10:10:26;;;;;;;;;;;;;;;25.20;33.50;100766.78;5018518;28;99059;-85
2021/08/02 10:12:52;;;;;;;;;;;;;;;26.01;32.14;100773.22;5014553;28;97230;-86
2021/08/02 10:15:20;;;;;;;;;;;;;;;25.23;32.79;100777.28;5046587;22;96649;-86
2021/08/02 10:17:49;;;;;;;;;;;;;;;24.59;33.49;100780.69;5019807;28;96029;-85
2021/08/02 10:20:22;;;;;;;;;;;;;;;24.92;33.61;100782.94;5004405;28;96630;-86
2021/08/02 10:22:50;;;;;;;;;;;;;;;24.84;33.63;100781.91;5000856;28;98941;-86
2021/08/02 10:25:17;;;;;;;;;;;;;;;25.60;32.86;100770.03;5004047;28;96669;-87
2021/08/02 10:27:43;;;;;;;;;;;;;;;26.60;31.76;100772.63;5004719;28;98088;-85
2021/08/02 10:30:22;;;;;;;;;;;;;;;27.01;30.21;100772.97;5003448;28;98604;-84
2021/08/02 10:32:51;;;;;;;;;;;;;;;26.14;31.32;100765.56;5009689;28;97708;-85
2021/08/02 10:35:29;;;;;;;;;;;;;;;26.21;31.38;100772.06;5010990;28;96501;-81
2021/08/02 10:38:00;;;;;;;;;;;;;;;26.25;31.07;100780.78;5015699;28;96607;-84
2021/08/02 10:40:27;;;;;;;;;;;;;;;24.40;33.04;100778.84;5012947;28;99206;-86
2021/08/02 10:42:53;;;;;;;;;;;;;;;24.27;33.95;100790.91;5008469;28;97717;-88
2021/08/02 10:45:29;;;;;;;;;;;;;;;24.20;34.63;100794.19;5000574;28;97070;-85
2021/08/02 10:47:56;;;;;;;;;;;;;;;24.39;34.62;100793.34;5003742;28;96756;-87
2021/08/02 10:50:24;;;;;;;;;;;;;;;24.59;34.23;100795.03;5006105;28;99411;-87
2021/08/02 10:52:50;;;;;;;;;;;;;;;24.58;34.25;100789.78;5000616;28;97731;-85
2021/08/02 10:55:18;;;;;;;;;;;;;;;24.70;34.28;100791.31;5001564;28;97491;-86
2021/08/02 10:57:58;;;;;;;;;;;;;;;25.04;33.41;100793.56;5004035;28;96878;-86
2021/08/02 11:00:24;;;;;;;;;;;;;;;24.32;34.26;100791.34;5003164;28;98904;-85
2021/08/02 11:02:51;;;;;;;;;;;;;;;24.39;33.95;100789.78;4997271;28;98574;-85
2021/08/02 11:05:18;;;;;;;;;;;;;;;24.05;35.04;100794.69;4998929;28;96823;-87
2021/08/02 11:07:44;;;;;;;;;;;;;;;24.01;34.92;100786.03;5006481;28;96782;-87
2021/08/02 11:10:12;;;;;;;;;;;;;;;24.98;33.08;100785.06;4997038;28;97958;-86
2021/08/02 11:12:51;;;;;;;;;;;;;;;25.78;31.54;100791.75;5004336;28;98031;-86
2021/08/02 11:15:17;;;;;;;;;;;;;;;25.99;30.75;100780.66;5004002;28;97309;-87
2021/08/02 11:17:50;;;;;;;;;;;;;;;25.49;31.40;100772.91;5012688;28;96674;-86
2021/08/02 11:20:18;;;;;;;;;;;;;;;24.50;32.22;100776.97;5010752;28;101310;-87
2021/08/02 11:22:49;;;;;;;;;;;;;;;25.25;31.79;100786.97;5009215;28;98872;-85
2021/08/02 11:25:21;;;;;;;;;;;;;;;25.90;30.65;100776.16;5015054;28;96754;-87
2021/08/02 11:27:54;;;;;;;;;;;;;;;25.48;31.11;100784.72;5015449;28;96434;-87
2021/08/02 11:30:20;;;;;;;;;;;;;;;25.90;30.20;100779.72;5009080;28;97837;-88
2021/08/02 11:32:46;;;;;;;;;;;;;;;26.41;28.99;100779.06;5007205;28;101419;-87
2021/08/02 11:35:13;;;;;;;;;;;;;;;25.52;30.41;100782.59;5008042;28;96745;-86
2021/08/02 11:37:48;;;;;;;;;;;;;;;26.25;28.37;100765.38;5007112;28;96820;-87
2021/08/02 11:40:14;;;;;;;;;;;;;;;26.42;29.21;100775.34;5007425;28;99796;-87
2021/08/02 11:42:42;;;;;;;;;;;;;;;26.17;29.88;100776.09;5007432;28;100238;-82
2021/08/02 11:45:11;;;;;;;;;;;;;;;26.32;29.62;100777.28;5004572;28;97055;-82
2021/08/02 11:47:42;;;;;;;;;;;;;;;26.36;30.34;100770.56;4997803;28;96562;-82
2021/08/02 11:50:09;;;;;;;;;;;;;;;26.52;29.13;100777.97;5007079;28;98919;-83
2021/08/02 11:52:37;;;;;;;;;;;;;;;26.24;28.43;100770.91;5008663;28;103885;-83
2021/08/02 11:55:05;;;;;;;;;;;;;;;25.77;29.07;100776.50;5010239;28;96898;-83
2021/08/02 11:57:31;;;;;;;;;;;;;;;26.34;26.92;100786.13;5012248;28;96837;-84
2021/08/02 11:59:59;;;;;;;;;;;;;;;26.36;25.93;100778.69;5010313;28;98075;-84
2021/08/02 12:02:33;;;;;;;;;;;;;;;25.80;26.30;100781.59;5005574;28;97956;-84
2021/08/02 12:05:00;;;;;;;;;;;;;;;25.91;26.72;100783.28;5009163;28;96800;-82
2021/08/02 12:07:27;;;;;;;;;;;;;;;26.70;26.17;100789.66;5013067;28;96784;-86
2021/08/02 12:09:57;;;;;;;;;;;;;;;27.26;25.87;100782.94;5002997;28;97879;-84
2021/08/02 12:12:24;;;;;;;;;;;;;;;27.15;26.80;100777.81;5009780;28;97944;-83
2021/08/02 12:14:50;;;;;;;;;;;;;;;27.31;26.45;100778.72;5011707;28;96614;-84
2021/08/02 12:17:18;;;;;;;;;;;;;;;27.72;26.82;100779.81;5016044;28;96571;-83
2021/08/02 12:19:51;;;;;;;;;;;;;;;28.17;26.01;100778.59;5011225;28;99855;-83
2021/08/02 12:22:19;;;;;;;;;;;;;;;27.59;26.16;100784.84;5010735;28;98546;-83
2021/08/02 12:24:56;;;;;;;;;;;;;;;27.48;26.53;100782.38;5007117;28;96701;-84
2021/08/02 12:27:24;;;;;;;;;;;;;;;26.43;27.67;100773.50;5007282;28;96115;-85
2021/08/02 12:30:01;;;;;;;;;;;;;;;26.95;27.91;100788.00;5001145;28;98036;-84
2021/08/02 12:32:34;;;;;;;;;;;;;;;27.52;26.74;100785.66;5011298;28;99382;-84
2021/08/02 12:35:01;;;;;;;;;;;;;;;27.21;27.24;100777.16;5014809;28;96947;-85
2021/08/02 12:37:30;;;;;;;;;;;;;;;27.13;26.88;100779.81;5013517;27;96326;-85
2021/08/02 12:39:57;;;;;;;;;;;;;;;27.59;26.29;100775.84;5011798;28;96674;-84
2021/08/02 12:42:25;;;;;;;;;;;;;;;27.87;24.46;100779.19;5010560;28;97863;-86
2021/08/02 12:44:52;;;;;;;;;;;;;;;27.01;24.74;100771.09;5011057;28;96672;-85
2021/08/02 12:47:18;;;;;;;;;;;;;;;27.05;25.49;100783.31;5015555;28;96744;-84
2021/08/02 12:49:44;;;;;;;;;;;;;;;26.67;25.83;100779.13;5013476;28;99221;-82
2021/08/02 12:52:12;;;;;;;;;;;;;;;26.90;25.94;100776.81;5015028;28;98335;-82